Strawberry Valley, California
Current Conditions -  °F | °C
As of 6:00 PM on Friday 21 Nov 2014 (Local Time) from KGOO Reporting Station
Overcast Overcast  
Wind Chill:   Ceiling: 3900
Heat Index:   Visibility: 10mi
Dew Point:   Wind: 3mph
Humidity: 100%   Direction: 120°ESE
Pressure: 30.11"   Gusts: NA
Location:  39.56°N, 121.11°W
Report Text: KGOO 220200Z AUTO 12003KT 10SM OVC039 08/08 A3011 RMK AO1
Loading
Personal Weather Stations






























Interactive Weather Map New forecast layout! Learn more

10-Day Weather Forecast

Advertisements
Track Severe Weather on mobile